Time;durP1;ratioP1;P1;durP2;ratioP2;P2;SDS_P1;SDS_P2;PMS_P1;PMS_P2;Temp;Humidity;BMP_temperature;BMP_pressure;BME280_temperature;BME280_humidity;BME280_pressure;Samples;Min_cycle;Max_cycle;Signal;HPM_P1;HPM_P2
2023/03/02 00:00:34;;;;;;;32.28;17.50;;;1.80;99.50;;;;;;5004218;28;20097;-71
2023/03/02 00:03:00;;;;;;;37.47;19.73;;;1.80;99.70;;;;;;5003049;28;20050;-74
2023/03/02 00:05:28;;;;;;;33.97;18.13;;;1.80;99.90;;;;;;5003662;28;20053;-72
2023/03/02 00:07:53;;;;;;;31.30;18.48;;;1.80;99.90;;;;;;5004589;28;20041;-72
2023/03/02 00:10:19;;;;;;;33.88;17.95;;;1.80;99.90;;;;;;5021414;28;20058;-71
2023/03/02 00:12:45;;;;;;;33.65;17.92;;;1.70;99.90;;;;;;5007144;28;20042;-72
2023/03/02 00:15:11;;;;;;;31.88;18.27;;;1.70;99.90;;;;;;5003639;28;20354;-72
2023/03/02 00:17:37;;;;;;;30.45;17.52;;;1.70;99.90;;;;;;5003928;28;20045;-71
2023/03/02 00:20:09;;;;;;;30.92;17.65;;;1.60;99.90;;;;;;5004352;28;20074;-73
2023/03/02 00:22:35;;;;;;;36.05;18.58;;;1.60;99.90;;;;;;5003912;28;20038;-71
2023/03/02 00:25:03;;;;;;;30.85;16.98;;;1.50;99.90;;;;;;5003997;28;20015;-71
2023/03/02 00:27:28;;;;;;;33.35;18.58;;;1.50;99.90;;;;;;5003714;28;20120;-72
2023/03/02 00:29:58;;;;;;;35.72;19.40;;;1.50;99.90;;;;;;5002967;28;20308;-72
2023/03/02 06:02:45;;;;;;;39.88;20.27;;;1.20;99.90;;;;;;5341368;23;20050;-70
2023/03/02 06:05:15;;;;;;;34.83;19.40;;;1.30;99.90;;;;;;4983065;28;20094;-70
2023/03/02 06:07:40;;;;;;;37.45;19.88;;;1.30;99.90;;;;;;4982437;28;20070;-70
2023/03/02 06:10:07;;;;;;;37.70;19.45;;;1.30;99.90;;;;;;4983021;28;20256;-70
2023/03/02 06:12:33;;;;;;;38.25;20.17;;;1.40;99.90;;;;;;4982392;28;20316;-71
2023/03/02 06:14:59;;;;;;;39.47;20.60;;;1.40;99.90;;;;;;4965718;28;20045;-69
2023/03/02 06:17:25;;;;;;;40.35;20.73;;;1.50;99.90;;;;;;4982867;28;20046;-70
2023/03/02 06:19:51;;;;;;;35.20;19.48;;;1.50;99.90;;;;;;4981218;28;20055;-69
2023/03/02 06:22:18;;;;;;;36.85;19.30;;;1.50;99.90;;;;;;4982000;28;20106;-69
2023/03/02 06:24:43;;;;;;;42.08;20.00;;;1.60;99.90;;;;;;4981817;28;20281;-69
2023/03/02 06:27:10;;;;;;;40.65;19.77;;;1.50;99.90;;;;;;4982879;28;20030;-70
2023/03/02 06:29:36;;;;;;;36.75;18.65;;;1.60;99.90;;;;;;4980824;28;20098;-69
2023/03/02 06:32:02;;;;;;;38.03;19.38;;;1.60;99.90;;;;;;4982492;28;20082;-70
2023/03/02 06:34:28;;;;;;;36.08;19.75;;;1.60;99.90;;;;;;4980918;28;20030;-70
2023/03/02 06:36:54;;;;;;;39.88;20.30;;;1.60;99.90;;;;;;4982676;28;20042;-70
2023/03/02 06:39:20;;;;;;;37.63;19.25;;;1.70;99.90;;;;;;4982748;28;20034;-70
2023/03/02 06:41:47;;;;;;;35.15;18.38;;;1.80;99.90;;;;;;4982301;28;20022;-69
2023/03/02 06:44:14;;;;;;;39.70;20.50;;;1.70;99.90;;;;;;4980415;28;20054;-69
2023/03/02 06:46:40;;;;;;;36.60;18.65;;;1.80;99.90;;;;;;4981879;28;20049;-70
2023/03/02 06:49:07;;;;;;;36.45;19.38;;;1.80;99.90;;;;;;4982767;28;20034;-70
2023/03/02 06:51:33;;;;;;;36.80;19.85;;;1.90;99.90;;;;;;4982163;28;20091;-69
2023/03/02 06:53:59;;;;;;;37.55;18.70;;;1.90;99.90;;;;;;4982485;28;20035;-71
2023/03/02 06:56:24;;;;;;;36.78;19.40;;;1.90;99.90;;;;;;4982443;28;20046;-71
2023/03/02 06:58:50;;;;;;;37.72;20.48;;;1.90;99.90;;;;;;4982158;28;20035;-71
2023/03/02 07:01:16;;;;;;;32.92;17.67;;;1.80;99.90;;;;;;4981938;28;20305;-70
2023/03/02 07:03:42;;;;;;;38.78;20.08;;;1.80;99.90;;;;;;4969774;28;20067;-70
2023/03/02 07:06:10;;;;;;;36.10;18.35;;;1.80;99.90;;;;;;4962052;28;20045;-70
2023/03/02 07:08:36;;;;;;;38.92;20.02;;;1.90;99.90;;;;;;4981987;28;20030;-71
2023/03/02 07:11:05;;;;;;;36.47;19.58;;;1.90;99.90;;;;;;4984488;28;20034;-71
2023/03/02 07:13:31;;;;;;;38.47;19.80;;;1.90;99.90;;;;;;4985193;28;20042;-71
2023/03/02 07:15:57;;;;;;;41.00;19.77;;;1.90;99.90;;;;;;4985760;28;20046;-70
2023/03/02 07:18:23;;;;;;;36.72;19.80;;;1.90;99.90;;;;;;4985940;28;20030;-71
2023/03/02 07:20:48;;;;;;;37.30;18.58;;;1.90;99.90;;;;;;4984829;28;20027;-72
2023/03/02 07:23:14;;;;;;;36.90;18.85;;;1.90;99.90;;;;;;4985607;28;20111;-70
2023/03/02 07:25:40;;;;;;;41.25;19.40;;;1.90;99.90;;;;;;4984879;28;20050;-70
2023/03/02 07:28:05;;;;;;;41.47;20.33;;;2.00;99.90;;;;;;4985583;28;20043;-70
2023/03/02 07:30:31;;;;;;;36.65;19.50;;;2.10;99.90;;;;;;4984929;28;20304;-71
2023/03/02 07:32:57;;;;;;;34.50;17.92;;;2.20;99.90;;;;;;4985782;28;20038;-72
2023/03/02 07:35:22;;;;;;;36.95;19.75;;;2.30;99.90;;;;;;4985277;28;20035;-71
2023/03/02 07:37:51;;;;;;;34.17;18.63;;;2.40;99.90;;;;;;4967910;28;20031;-72
2023/03/02 07:40:16;;;;;;;35.40;18.38;;;2.50;99.90;;;;;;4985775;28;20035;-71
2023/03/02 07:42:42;;;;;;;31.75;17.58;;;2.50;99.90;;;;;;4967408;28;20039;-69
2023/03/02 07:45:10;;;;;;;34.75;18.50;;;2.60;99.90;;;;;;4957193;29;20023;-68
2023/03/02 07:47:36;;;;;;;36.22;19.02;;;2.80;99.90;;;;;;4982603;28;20128;-70
2023/03/02 07:50:01;;;;;;;35.85;19.45;;;2.80;99.90;;;;;;4985106;28;20265;-70
2023/03/02 07:52:29;;;;;;;34.95;17.80;;;3.00;99.90;;;;;;4974470;28;20043;-70
2023/03/02 07:54:55;;;;;;;34.80;18.17;;;3.00;99.90;;;;;;4980062;28;20089;-70
2023/03/02 07:57:21;;;;;;;31.52;18.15;;;3.10;99.90;;;;;;4975142;28;20334;-70
2023/03/02 07:59:47;;;;;;;34.65;18.55;;;3.20;99.90;;;;;;4976638;28;20062;-70
2023/03/02 08:02:14;;;;;;;31.73;17.27;;;3.30;99.90;;;;;;4983143;28;20047;-70
2023/03/02 08:04:40;;;;;;;32.33;18.25;;;3.40;99.90;;;;;;4960660;28;20039;-70
2023/03/02 08:07:06;;;;;;;33.97;17.50;;;3.50;99.90;;;;;;4982979;28;20475;-69
2023/03/02 08:09:32;;;;;;;33.38;17.50;;;3.70;99.90;;;;;;4980135;28;20030;-71
2023/03/02 08:11:58;;;;;;;32.58;17.70;;;3.80;99.90;;;;;;4979095;28;20090;-69
2023/03/02 08:14:23;;;;;;;32.08;17.35;;;4.00;99.90;;;;;;4979737;28;20015;-71
2023/03/02 08:16:51;;;;;;;33.72;18.27;;;4.00;99.90;;;;;;4980443;28;20054;-72
2023/03/02 08:19:18;;;;;;;33.05;16.75;;;4.10;99.90;;;;;;4973008;28;20047;-70
2023/03/02 08:21:43;;;;;;;30.95;16.90;;;4.20;99.70;;;;;;4976068;28;20225;-70
2023/03/02 08:24:10;;;;;;;30.52;17.23;;;4.30;99.70;;;;;;4973438;28;20039;-72
2023/03/02 08:26:36;;;;;;;32.63;17.25;;;4.40;99.40;;;;;;4981796;28;20042;-72
2023/03/02 08:29:02;;;;;;;31.85;17.33;;;4.60;98.90;;;;;;4968639;28;20034;-72
2023/03/02 08:31:29;;;;;;;32.15;15.82;;;4.80;98.60;;;;;;4977413;28;20031;-69
2023/03/02 08:33:55;;;;;;;32.25;17.08;;;4.80;98.10;;;;;;4981053;28;20315;-70
2023/03/02 08:36:21;;;;;;;31.45;17.23;;;4.90;97.70;;;;;;4978531;28;20031;-71
2023/03/02 08:38:47;;;;;;;29.13;16.45;;;5.00;97.80;;;;;;4970746;28;20102;-71
2023/03/02 08:41:23;;;;;;;31.27;16.80;;;5.20;97.40;;;;;;4982628;28;20308;-71
2023/03/02 08:43:49;;;;;;;29.65;16.23;;;5.10;97.20;;;;;;4981651;28;20042;-70
2023/03/02 08:46:17;;;;;;;31.95;17.65;;;5.30;97.30;;;;;;4977008;28;20117;-71
2023/03/02 08:48:43;;;;;;;26.48;16.45;;;5.50;96.50;;;;;;4977518;28;20046;-71
2023/03/02 08:51:12;;;;;;;28.77;16.55;;;5.70;96.00;;;;;;4980954;28;20043;-72
2023/03/02 08:53:41;;;;;;;28.60;16.25;;;5.70;95.70;;;;;;4981886;28;20031;-72
2023/03/02 08:56:29;;;;;;;27.35;16.23;;;5.70;95.80;;;;;;4982380;28;20085;-72
2023/03/02 08:58:58;;;;;;;27.80;15.43;;;6.00;95.70;;;;;;4982192;28;20054;-71
2023/03/02 09:01:28;;;;;;;26.30;15.32;;;6.00;95.10;;;;;;4981506;28;20073;-72
2023/03/02 09:03:55;;;;;;;26.67;15.07;;;6.10;94.80;;;;;;4982337;28;20073;-71
2023/03/02 09:06:20;;;;;;;30.08;16.08;;;6.10;94.80;;;;;;4980155;28;20035;-71
2023/03/02 09:08:47;;;;;;;25.30;15.18;;;6.20;94.60;;;;;;4979150;28;20049;-71
2023/03/02 09:11:13;;;;;;;27.40;15.05;;;6.30;94.80;;;;;;4976639;28;20014;-72
2023/03/02 09:13:39;;;;;;;27.48;14.85;;;6.40;94.40;;;;;;4979951;28;20316;-72
2023/03/02 09:16:07;;;;;;;28.35;16.13;;;6.50;94.30;;;;;;4982173;28;20038;-72
2023/03/02 09:18:33;;;;;;;27.80;15.55;;;6.40;94.10;;;;;;4980912;28;20039;-72
2023/03/02 09:20:59;;;;;;;30.70;15.60;;;6.20;94.20;;;;;;4977787;28;20042;-71
2023/03/02 09:23:26;;;;;;;30.27;16.00;;;6.00;94.30;;;;;;4978300;28;20034;-73
2023/03/02 09:25:52;;;;;;;28.33;15.73;;;5.90;94.80;;;;;;4989313;28;20201;-70
2023/03/02 09:28:20;;;;;;;27.60;14.73;;;6.10;94.80;;;;;;4982655;28;20035;-72
2023/03/02 09:30:56;;;;;;;24.23;13.88;;;6.20;94.80;;;;;;4981702;28;20033;-75
2023/03/02 09:33:22;;;;;;;24.40;14.32;;;6.40;94.60;;;;;;4981831;28;20042;-71
2023/03/02 09:35:49;;;;;;;25.80;14.55;;;6.50;94.40;;;;;;4981067;28;20039;-72
2023/03/02 09:38:16;;;;;;;25.45;14.10;;;6.50;94.00;;;;;;4978749;28;20018;-71
2023/03/02 09:41:08;;;;;;;25.65;15.18;;;6.40;94.20;;;;;;4976003;28;20049;-71
2023/03/02 09:43:57;;;;;;;27.13;14.75;;;6.50;94.40;;;;;;4960351;28;20319;-70
2023/03/02 09:46:32;;;;;;;27.08;14.90;;;6.50;94.20;;;;;;4982282;28;20070;-72
2023/03/02 09:49:25;;;;;;;31.80;14.68;;;6.40;94.40;;;;;;4980649;28;20034;-73
2023/03/02 09:52:29;;;;;;;28.27;15.65;;;6.70;94.40;;;;;;4981611;28;20042;-69
2023/03/02 09:54:58;;;;;;;26.23;14.65;;;6.90;93.90;;;;;;4981043;28;20338;-72
2023/03/02 09:57:37;;;;;;;26.75;14.93;;;7.20;93.40;;;;;;4970648;28;20054;-71
2023/03/02 10:00:21;;;;;;;25.98;13.98;;;7.40;93.00;;;;;;4979120;28;20106;-75
2023/03/02 10:02:55;;;;;;;25.33;14.23;;;7.50;92.80;;;;;;4978806;28;20059;-73
2023/03/02 10:05:25;;;;;;;25.90;14.85;;;7.90;92.30;;;;;;4981678;28;20023;-72
2023/03/02 10:07:51;;;;;;;25.60;14.77;;;8.20;91.90;;;;;;4979773;28;20059;-73
2023/03/02 10:10:36;;;;;;;23.05;14.13;;;8.50;91.30;;;;;;4980902;28;20043;-70
2023/03/02 10:13:24;;;;;;;26.02;14.90;;;8.50;91.00;;;;;;4982110;28;20046;-72
2023/03/02 10:16:30;;;;;;;22.90;13.98;;;8.70;90.90;;;;;;4978635;28;20042;-72
2023/03/02 10:19:11;;;;;;;22.90;13.57;;;9.00;90.60;;;;;;4978025;28;20035;-71
2023/03/02 10:21:38;;;;;;;22.92;13.45;;;9.20;90.10;;;;;;4977342;28;20039;-71
2023/03/02 10:24:14;;;;;;;23.45;14.57;;;9.20;89.10;;;;;;4971873;28;20038;-71
2023/03/02 10:26:58;;;;;;;22.20;13.63;;;9.10;89.30;;;;;;4962324;28;20027;-70
2023/03/02 10:29:46;;;;;;;22.02;13.30;;;9.00;89.80;;;;;;4979839;28;20023;-72
2023/03/02 10:32:28;;;;;;;24.23;13.97;;;9.10;89.00;;;;;;4980813;28;20042;-71
2023/03/02 10:34:53;;;;;;;26.80;14.50;;;9.10;89.50;;;;;;4980655;28;20439;-71
2023/03/02 10:37:28;;;;;;;24.65;14.35;;;9.20;88.90;;;;;;4978110;28;20045;-71
2023/03/02 10:39:54;;;;;;;25.30;14.70;;;9.10;89.50;;;;;;4981256;28;20264;-70
2023/03/02 10:42:22;;;;;;;26.92;14.35;;;9.00;89.20;;;;;;4980953;28;20173;-73
2023/03/02 10:44:51;;;;;;;23.38;14.10;;;8.90;89.20;;;;;;4981634;28;20383;-71
2023/03/02 10:47:26;;;;;;;22.92;14.77;;;8.90;90.10;;;;;;4978490;28;20265;-71
2023/03/02 10:49:53;;;;;;;24.05;13.68;;;9.20;89.70;;;;;;4980797;28;20054;-72
2023/03/02 10:52:22;;;;;;;27.17;15.03;;;9.20;88.70;;;;;;4980541;28;20033;-70
2023/03/02 10:54:48;;;;;;;27.15;15.68;;;9.40;88.60;;;;;;4984416;28;20042;-72
2023/03/02 10:57:27;;;;;;;23.67;14.52;;;9.60;88.30;;;;;;4981192;28;20313;-71
2023/03/02 11:00:02;;;;;;;24.30;14.07;;;9.50;87.60;;;;;;4982361;28;20035;-72
2023/03/02 11:02:31;;;;;;;22.95;14.30;;;9.60;88.00;;;;;;4980533;28;20292;-72
2023/03/02 11:05:19;;;;;;;24.23;14.07;;;9.70;87.70;;;;;;4982552;28;20220;-72
2023/03/02 11:07:52;;;;;;;;;;;9.80;86.90;;;;;;4975388;28;20031;-73
2023/03/02 11:10:24;;;;;;;20.90;13.65;;;10.30;87.40;;;;;;4979171;28;19913;-72
2023/03/02 11:12:52;;;;;;;23.15;14.50;;;10.70;85.40;;;;;;4984191;28;20034;-72
2023/03/02 11:15:21;;;;;;;25.60;16.43;;;10.80;83.30;;;;;;4982830;28;20224;-70
2023/03/02 11:17:53;;;;;;;20.20;13.40;;;10.60;83.50;;;;;;4983889;28;20023;-72
2023/03/02 11:20:33;;;;;;;23.05;15.02;;;10.60;84.40;;;;;;4984398;28;20051;-72
2023/03/02 11:23:30;;;;;;;22.90;14.63;;;11.20;82.80;;;;;;4983934;28;20341;-73
2023/03/02 11:26:14;;;;;;;20.27;13.52;;;11.50;81.60;;;;;;4979067;28;20027;-71
2023/03/02 11:28:50;;;;;;;20.00;13.88;;;12.50;79.90;;;;;;4978754;28;20043;-72
2023/03/02 11:31:28;;;;;;;19.13;13.23;;;12.60;78.10;;;;;;4984683;28;20503;-70
2023/03/02 11:34:21;;;;;;;20.90;13.90;;;13.20;77.80;;;;;;4982831;28;20074;-72
2023/03/02 11:37:01;;;;;;;20.20;13.75;;;13.60;75.80;;;;;;4989470;28;20030;-71
2023/03/02 11:39:43;;;;;;;19.10;14.25;;;14.40;74.30;;;;;;4984356;28;20334;-71
2023/03/02 11:42:33;;;;;;;21.73;15.13;;;14.60;72.10;;;;;;4983168;28;20030;-70
2023/03/02 11:45:19;;;;;;;19.88;14.73;;;14.20;72.90;;;;;;4983251;28;20389;-73
2023/03/02 11:47:59;;;;;;;19.48;13.90;;;14.70;72.00;;;;;;4980093;28;20027;-71
2023/03/02 11:50:25;;;;;;;19.23;13.43;;;15.00;72.20;;;;;;4981089;28;20035;-73
2023/03/02 11:53:22;;;;;;;19.00;13.85;;;15.80;70.10;;;;;;4979616;28;20335;-71
2023/03/02 11:55:49;;;;;;;17.13;13.13;;;16.00;67.90;;;;;;4943777;28;20125;-72
2023/03/02 11:58:24;;;;;;;18.52;13.75;;;16.10;68.90;;;;;;4982631;28;20030;-71
2023/03/02 12:00:54;;;;;;;18.05;13.45;;;16.70;68.00;;;;;;4980667;28;20078;-73
2023/03/02 12:03:34;;;;;;;16.70;13.48;;;17.40;66.00;;;;;;4982877;28;20047;-72
2023/03/02 12:06:26;;;;;;;16.42;13.27;;;17.10;65.60;;;;;;4983366;28;20268;-71
2023/03/02 12:09:06;;;;;;;16.40;13.13;;;18.10;63.80;;;;;;4977447;28;20040;-72
2023/03/02 12:11:37;;;;;;;17.95;13.27;;;18.20;63.30;;;;;;4979831;28;20103;-73
2023/03/02 12:14:38;;;;;;;17.92;12.88;;;18.50;62.80;;;;;;4991418;28;20053;-73
2023/03/02 12:17:23;;;;;;;19.92;13.65;;;18.80;62.30;;;;;;4990765;28;21214;-71
2023/03/02 12:20:10;;;;;;;18.73;13.15;;;18.40;61.50;;;;;;4981264;28;20049;-74
2023/03/02 12:22:36;;;;;;;16.70;12.85;;;18.10;62.00;;;;;;4983335;28;20045;-72
2023/03/02 12:25:27;;;;;;;15.02;12.50;;;18.30;63.00;;;;;;4983170;28;20087;-71
2023/03/02 12:27:56;;;;;;;16.75;12.10;;;19.30;60.80;;;;;;4980942;28;20082;-72
2023/03/02 12:30:26;;;;;;;16.38;11.55;;;20.20;59.80;;;;;;4981674;28;20042;-70
2023/03/02 12:33:09;;;;;;;18.88;12.52;;;20.80;58.00;;;;;;4979193;28;20085;-70
2023/03/02 12:35:35;;;;;;;16.25;12.80;;;21.20;57.40;;;;;;4981468;28;20115;-72
2023/03/02 12:38:23;;;;;;;20.35;12.77;;;21.10;57.10;;;;;;4978843;28;20041;-73
2023/03/02 12:41:16;;;;;;;16.90;11.85;;;20.40;56.90;;;;;;4980483;28;20089;-71
2023/03/02 12:44:03;;;;;;;14.93;11.93;;;21.10;56.90;;;;;;4982926;28;20117;-73
2023/03/02 12:46:36;;;;;;;18.02;12.52;;;20.70;56.50;;;;;;4979485;28;20058;-72
2023/03/02 12:49:24;;;;;;;15.43;11.45;;;21.10;57.00;;;;;;4975279;28;20134;-73
2023/03/02 12:51:59;;;;;;;15.10;12.30;;;21.40;58.30;;;;;;4974239;28;20382;-73
2023/03/02 12:54:30;;;;;;;14.55;11.60;;;21.20;56.20;;;;;;4981922;28;20034;-70
2023/03/02 12:57:07;;;;;;;16.00;12.13;;;21.70;55.60;;;;;;4978941;28;20031;-70
2023/03/02 12:59:33;;;;;;;14.80;11.35;;;22.00;54.60;;;;;;4977137;28;20029;-71
2023/03/02 13:02:29;;;;;;;15.70;12.00;;;23.00;55.00;;;;;;4982022;28;20063;-70
2023/03/02 13:04:58;;;;;;;14.20;10.95;;;23.50;53.30;;;;;;4977783;28;20042;-71
2023/03/02 13:07:42;;;;;;;13.77;10.98;;;23.80;54.80;;;;;;4981067;28;20360;-73
2023/03/02 13:10:46;;;;;;;14.27;11.30;;;24.30;52.50;;;;;;4982661;28;20056;-76
2023/03/02 13:13:31;;;;;;;14.30;11.20;;;24.20;52.00;;;;;;4978045;28;20037;-72
2023/03/02 13:15:59;;;;;;;14.38;11.50;;;24.00;51.80;;;;;;4979196;28;20059;-71
2023/03/02 13:18:35;;;;;;;15.82;11.00;;;24.00;51.20;;;;;;4982393;28;20071;-73
2023/03/02 13:21:03;;;;;;;15.00;11.63;;;24.30;51.90;;;;;;4978361;28;20038;-73
2023/03/02 13:23:30;;;;;;;13.15;10.73;;;24.90;51.10;;;;;;4981896;28;20085;-72
2023/03/02 13:26:05;;;;;;;13.60;11.52;;;24.60;50.70;;;;;;4976278;28;20029;-78
2023/03/02 13:28:37;;;;;;;14.50;11.13;;;24.70;50.30;;;;;;4977295;28;20055;-71
2023/03/02 13:31:22;;;;;;;13.80;10.93;;;24.90;50.70;;;;;;4969379;28;20507;-73
2023/03/02 13:33:49;;;;;;;15.20;11.93;;;25.00;50.80;;;;;;4976664;28;20035;-72
2023/03/02 13:36:43;;;;;;;14.85;12.02;;;25.60;49.90;;;;;;4988816;28;20062;-74
2023/03/02 13:39:19;;;;;;;17.08;12.85;;;25.80;49.10;;;;;;4973910;28;20098;-71
2023/03/02 13:42:14;;;;;;;16.65;13.10;;;24.50;49.50;;;;;;4978785;28;20050;-73
2023/03/02 13:44:40;;;;;;;17.92;13.13;;;24.70;50.40;;;;;;4979345;28;20035;-73
2023/03/02 13:47:23;;;;;;;15.27;11.27;;;24.40;50.60;;;;;;4981180;28;20081;-72
2023/03/02 13:49:49;;;;;;;16.60;12.65;;;25.40;50.70;;;;;;4979234;28;20301;-75
2023/03/02 13:52:28;;;;;;;16.13;13.25;;;25.90;48.70;;;;;;4981494;28;20027;-74
2023/03/02 13:54:54;;;;;;;15.57;12.32;;;25.10;49.20;;;;;;4981570;28;20039;-74
2023/03/02 13:57:27;;;;;;;14.60;13.00;;;24.70;49.40;;;;;;4974411;28;20244;-75
2023/03/02 13:59:52;;;;;;;18.83;13.15;;;24.50;49.50;;;;;;4978491;28;20042;-73
2023/03/02 14:02:29;;;;;;;17.67;14.00;;;24.00;50.50;;;;;;4978025;28;20053;-75
2023/03/02 14:04:55;;;;;;;15.30;12.82;;;23.80;50.50;;;;;;4969412;28;20034;-72
2023/03/02 14:07:22;;;;;;;17.33;13.32;;;23.30;51.10;;;;;;4979965;28;20050;-71
2023/03/02 14:09:47;;;;;;;17.00;12.35;;;23.10;52.20;;;;;;4980047;28;20036;-73
2023/03/02 14:12:32;;;;;;;16.92;13.65;;;23.10;52.00;;;;;;4981632;28;20138;-73
2023/03/02 14:15:01;;;;;;;17.80;12.20;;;22.80;51.40;;;;;;4981218;28;20035;-74
2023/03/02 14:17:27;;;;;;;16.35;12.20;;;23.40;51.80;;;;;;4981996;28;20019;-72
2023/03/02 14:19:54;;;;;;;19.73;13.52;;;23.50;52.20;;;;;;4989801;28;20027;-73
2023/03/02 14:22:21;;;;;;;16.85;13.05;;;24.10;50.70;;;;;;4982625;28;20030;-73
2023/03/02 14:24:48;;;;;;;17.70;12.85;;;24.10;49.60;;;;;;4985279;28;20033;-72
2023/03/02 14:27:17;;;;;;;17.02;13.13;;;24.60;50.70;;;;;;4983510;28;20030;-75
2023/03/02 14:29:45;;;;;;;17.30;13.02;;;25.20;49.00;;;;;;4984532;28;20035;-75
2023/03/02 14:32:13;;;;;;;18.77;13.13;;;24.90;48.70;;;;;;4982748;28;20232;-74
2023/03/02 14:34:39;;;;;;;17.92;13.80;;;24.10;48.70;;;;;;4985699;28;20093;-74
2023/03/02 14:37:17;;;;;;;19.92;13.00;;;23.80;49.90;;;;;;4984018;28;20304;-72
2023/03/02 14:39:46;;;;;;;17.20;12.40;;;23.70;49.70;;;;;;4985657;28;20220;-72
2023/03/02 14:42:15;;;;;;;14.20;11.80;;;23.90;50.40;;;;;;4979949;28;20094;-72
2023/03/02 14:44:42;;;;;;;18.70;13.82;;;24.90;50.90;;;;;;4982776;28;20039;-74
2023/03/02 14:47:09;;;;;;;17.40;12.70;;;25.20;49.20;;;;;;4980366;28;20039;-73
2023/03/02 14:49:38;;;;;;;18.17;12.68;;;24.90;49.30;;;;;;4984964;28;20265;-73
2023/03/02 14:52:07;;;;;;;17.83;12.18;;;24.50;49.90;;;;;;4983606;28;20105;-73
2023/03/02 14:54:53;;;;;;;17.50;13.00;;;25.10;51.20;;;;;;4985138;28;20031;-74
2023/03/02 14:57:22;;;;;;;18.63;14.15;;;24.60;49.30;;;;;;4977989;28;20035;-72
2023/03/02 14:59:48;;;;;;;20.48;13.85;;;24.10;49.90;;;;;;4980513;28;20035;-71
2023/03/02 15:02:15;;;;;;;17.02;13.43;;;22.90;50.20;;;;;;4984448;28;20170;-74
2023/03/02 15:04:40;;;;;;;15.80;12.55;;;22.50;50.50;;;;;;4984782;28;20042;-75
2023/03/02 15:07:11;;;;;;;22.00;13.98;;;21.90;54.70;;;;;;4982705;28;20261;-72
2023/03/02 15:09:37;;;;;;;18.42;13.82;;;22.30;51.20;;;;;;4981961;28;20054;-74
2023/03/02 15:12:03;;;;;;;18.60;13.20;;;22.60;52.10;;;;;;4980489;28;20097;-72
2023/03/02 15:14:29;;;;;;;19.17;12.93;;;23.00;52.00;;;;;;4981810;28;20321;-73
2023/03/02 15:16:55;;;;;;;16.05;12.50;;;22.50;51.20;;;;;;4983900;28;20031;-73
2023/03/02 15:19:20;;;;;;;17.42;13.13;;;22.50;53.20;;;;;;4984229;28;20026;-72
2023/03/02 15:21:46;;;;;;;17.38;12.60;;;22.50;51.10;;;;;;4984337;28;20037;-73
2023/03/02 15:24:12;;;;;;;18.67;12.73;;;21.50;52.90;;;;;;4984407;28;20074;-80
2023/03/02 15:26:39;;;;;;;20.23;13.82;;;21.50;53.30;;;;;;4983130;28;20045;-78
2023/03/02 15:29:06;;;;;;;18.88;13.38;;;21.70;52.40;;;;;;4981655;28;20323;-73
2023/03/02 15:31:32;;;;;;;16.98;12.88;;;21.40;53.00;;;;;;4983842;28;20022;-73
2023/03/02 15:33:58;;;;;;;23.27;13.75;;;21.60;53.10;;;;;;4981148;28;20261;-73
2023/03/02 15:36:25;;;;;;;17.13;12.95;;;21.00;53.80;;;;;;4982056;28;20256;-74
2023/03/02 15:38:51;;;;;;;17.23;13.15;;;21.00;55.10;;;;;;4983960;28;20045;-74
2023/03/02 15:41:17;;;;;;;19.40;13.23;;;21.20;53.50;;;;;;4983128;28;20093;-77
2023/03/02 15:43:47;;;;;;;15.85;12.95;;;21.00;53.60;;;;;;4983260;28;20033;-75
2023/03/02 15:46:13;;;;;;;18.65;13.05;;;21.10;54.50;;;;;;4983055;28;20030;-75
2023/03/02 15:48:38;;;;;;;21.50;13.68;;;20.70;54.00;;;;;;4984630;28;20348;-76
2023/03/02 15:51:06;;;;;;;17.75;13.60;;;20.00;54.50;;;;;;4980629;28;20038;-75
2023/03/02 15:53:34;;;;;;;18.63;13.90;;;20.30;54.60;;;;;;4981297;28;20039;-73
2023/03/02 15:56:04;;;;;;;20.23;13.65;;;20.00;54.80;;;;;;4979482;28;20442;-71
2023/03/02 15:58:30;;;;;;;18.45;13.20;;;19.80;54.70;;;;;;4983975;28;20069;-71
2023/03/02 16:00:56;;;;;;;19.73;13.25;;;19.60;55.30;;;;;;4982076;28;20023;-71
2023/03/02 16:03:23;;;;;;;20.02;14.40;;;19.50;58.10;;;;;;4978173;28;20110;-72
2023/03/02 16:05:48;;;;;;;22.60;14.15;;;19.40;56.20;;;;;;4981004;28;20026;-71
2023/03/02 16:08:14;;;;;;;17.70;12.45;;;20.00;55.60;;;;;;4983141;28;20063;-71
2023/03/02 16:10:43;;;;;;;18.35;13.30;;;19.70;57.00;;;;;;4982851;28;20027;-71
2023/03/02 16:13:11;;;;;;;19.27;13.80;;;19.20;57.60;;;;;;4982383;28;20094;-72
2023/03/02 16:15:41;;;;;;;20.65;13.98;;;18.70;56.40;;;;;;4981907;28;20104;-73
2023/03/02 16:18:08;;;;;;;19.58;13.25;;;17.90;57.90;;;;;;4982433;28;20098;-73
2023/03/02 16:20:38;;;;;;;22.67;12.73;;;17.60;59.10;;;;;;4978711;28;20094;-72
2023/03/02 16:23:06;;;;;;;25.55;14.48;;;17.40;59.40;;;;;;4979077;28;20039;-71
2023/03/02 16:25:33;;;;;;;;;;;16.90;59.80;;;;;;4983503;28;20033;-73
2023/03/02 16:28:02;;;;;;;21.50;13.48;;;16.50;60.90;;;;;;4982939;28;19906;-73
2023/03/02 16:30:32;;;;;;;25.10;14.82;;;16.50;60.70;;;;;;4981379;28;20046;-73
2023/03/02 16:32:59;;;;;;;20.08;13.23;;;15.50;62.60;;;;;;4981089;28;20058;-73
2023/03/02 16:35:26;;;;;;;26.67;13.73;;;15.20;64.40;;;;;;4982791;28;20035;-70
2023/03/02 16:37:52;;;;;;;21.90;14.27;;;14.90;65.90;;;;;;4983106;28;20788;-71
2023/03/02 16:40:18;;;;;;;22.20;13.48;;;14.50;65.70;;;;;;4981129;28;20043;-70
2023/03/02 16:42:43;;;;;;;24.90;14.18;;;13.60;68.20;;;;;;4981814;28;20098;-70
2023/03/02 16:45:09;;;;;;;23.90;14.35;;;13.10;69.10;;;;;;4987273;28;20042;-72
2023/03/02 16:47:35;;;;;;;25.13;14.60;;;12.80;70.80;;;;;;4982662;28;20053;-71
2023/03/02 16:50:03;;;;;;;23.75;13.60;;;12.10;71.70;;;;;;4980879;28;20347;-71
2023/03/02 16:52:28;;;;;;;23.40;14.43;;;11.80;72.90;;;;;;4978115;28;20031;-71
2023/03/02 16:54:54;;;;;;;26.48;15.05;;;11.60;73.80;;;;;;4981953;28;20115;-75
2023/03/02 16:57:20;;;;;;;27.67;14.88;;;11.30;74.40;;;;;;4969532;28;20098;-71
2023/03/02 16:59:45;;;;;;;23.80;14.23;;;10.90;75.20;;;;;;4978774;28;20098;-72
2023/03/02 17:02:11;;;;;;;27.85;15.50;;;10.70;76.50;;;;;;4978785;28;20074;-72
2023/03/02 17:04:37;;;;;;;25.60;14.80;;;10.50;76.50;;;;;;4972657;28;20046;-71
2023/03/02 17:07:04;;;;;;;25.48;14.70;;;10.30;77.40;;;;;;4980705;28;20034;-73
2023/03/02 17:09:33;;;;;;;25.33;14.90;;;10.20;77.70;;;;;;4982419;28;20026;-72
2023/03/02 17:11:58;;;;;;;25.27;15.57;;;10.20;79.00;;;;;;4982487;28;20042;-75
2023/03/02 17:14:25;;;;;;;24.45;15.25;;;10.20;78.30;;;;;;4982552;28;20304;-72
2023/03/02 17:16:50;;;;;;;27.48;15.13;;;10.10;78.50;;;;;;4976394;28;20061;-70
2023/03/02 17:19:19;;;;;;;26.40;15.27;;;9.90;79.00;;;;;;4979493;28;20332;-70
2023/03/02 17:21:45;;;;;;;27.27;14.80;;;9.80;79.60;;;;;;4982694;28;20098;-72
2023/03/02 17:24:11;;;;;;;26.95;14.95;;;9.90;79.90;;;;;;4977714;28;20197;-71
2023/03/02 17:26:36;;;;;;;25.45;15.35;;;9.80;79.90;;;;;;4980527;28;20324;-70
2023/03/02 17:29:02;;;;;;;24.88;14.32;;;9.90;79.90;;;;;;4981727;28;20039;-72
2023/03/02 17:31:28;;;;;;;25.35;14.98;;;9.70;80.10;;;;;;4982661;28;20031;-72
2023/03/02 17:33:55;;;;;;;26.55;15.35;;;9.70;80.40;;;;;;4979320;28;20034;-72
2023/03/02 17:36:20;;;;;;;29.13;16.27;;;9.70;80.60;;;;;;4978308;28;20034;-72
2023/03/02 17:38:46;;;;;;;30.13;16.60;;;9.50;81.00;;;;;;4981913;28;20367;-72
2023/03/02 17:41:12;;;;;;;28.60;16.50;;;9.40;81.20;;;;;;4981467;28;20347;-72
2023/03/02 17:43:39;;;;;;;28.80;15.93;;;9.30;81.70;;;;;;4981219;28;20031;-73
2023/03/02 17:46:21;;;;;;;32.67;17.73;;;9.20;81.90;;;;;;4980072;28;20027;-72
2023/03/02 17:48:49;;;;;;;26.48;16.27;;;9.20;82.40;;;;;;4982091;28;20034;-77
2023/03/02 17:51:16;;;;;;;33.03;17.38;;;9.10;82.70;;;;;;4979159;28;20023;-72
2023/03/02 17:53:46;;;;;;;30.42;17.20;;;9.00;83.00;;;;;;4974208;28;20099;-72
2023/03/02 17:56:14;;;;;;;28.83;15.80;;;9.00;83.20;;;;;;4980210;28;20352;-71
2023/03/02 17:58:40;;;;;;;28.08;17.08;;;8.90;83.40;;;;;;4981954;28;20069;-72
2023/03/02 18:01:06;;;;;;;27.77;17.48;;;8.90;83.60;;;;;;4981392;28;20027;-71
2023/03/02 18:03:32;;;;;;;30.83;17.92;;;8.80;83.90;;;;;;4982060;28;20038;-71
2023/03/02 18:05:59;;;;;;;31.83;18.48;;;8.80;84.10;;;;;;4981567;28;20070;-74
2023/03/02 18:08:25;;;;;;;30.20;17.55;;;8.70;84.50;;;;;;4971529;28;20035;-72
2023/03/02 18:10:51;;;;;;;34.55;18.27;;;8.70;84.90;;;;;;4979807;28;20034;-74
2023/03/02 18:13:17;;;;;;;34.85;19.13;;;8.60;85.20;;;;;;4980431;28;20317;-73
2023/03/02 18:15:43;;;;;;;35.60;20.05;;;8.50;85.40;;;;;;4981586;28;20299;-75
2023/03/02 18:18:11;;;;;;;34.90;19.63;;;8.40;86.10;;;;;;4988074;28;20031;-72
2023/03/02 18:20:37;;;;;;;38.17;20.63;;;8.40;86.50;;;;;;4976301;28;20025;-72